Terminal Aerodrome Forecast
Issued by NWS

Home | Current Version | Previous Version | Graphics & Text | Print | Product List | Glossary On
Versions: 1 2 3 4 5 6 7 8 9 10 11 12 13 14 15 16 17 18 19 20 21 22 23 24
000
FTUS43 KTOP 242300
TAFMHK
TAF
KMHK 242320Z 2500/2524 12010KT P6SM BKN020 OVC025
     FM250200 16012KT 6SM BR VCTS BKN025CB OVC035
      TEMPO 2503/2507 18015G25KT 1SM TSRA OVC020CB
     FM250700 25009KT 5SM -RA VCTS OVC015CB
     FM251300 33011KT P6SM SCT020 BKN035=

USA.gov is the U.S. government's official web portal to all federal, state and local government web resources and services.